createdAt,value
2022-09-01T00:03:01.875Z,101327.81
2022-09-01T00:08:05.648Z,101322.41
2022-09-01T00:13:07.749Z,101326.81
2022-09-01T00:18:09.751Z,101314.00
2022-09-01T00:23:11.741Z,101314.09
2022-09-01T00:28:13.690Z,101327.81
2022-09-01T00:33:15.900Z,101335.53
2022-09-01T00:38:18.384Z,101331.69
2022-09-01T00:43:40.177Z,101328.50
2022-09-01T00:48:42.350Z,101326.94
2022-09-01T00:53:46.173Z,101332.09
2022-09-01T00:58:48.446Z,101327.16
2022-09-01T01:03:50.391Z,101334.03
2022-09-01T01:09:01.083Z,101324.38
2022-09-01T01:14:12.228Z,101332.56
2022-09-01T01:19:41.952Z,101332.56
2022-09-01T01:24:46.367Z,101331.44
2022-09-01T01:29:49.027Z,101335.25
2022-09-01T01:34:50.739Z,101332.44
2022-09-01T01:39:53.620Z,101325.00
2022-09-01T01:44:55.919Z,101329.50
2022-09-01T01:49:57.978Z,101333.09
2022-09-01T01:55:04.518Z,101341.16
2022-09-01T02:00:08.073Z,101342.22
2022-09-01T02:05:13.216Z,101338.56
2022-09-01T02:10:15.409Z,101334.16
2022-09-01T02:15:17.498Z,101340.16
2022-09-01T02:20:19.454Z,101342.00
2022-09-01T02:25:21.606Z,101341.16
2022-09-01T02:30:26.821Z,101336.84
2022-09-01T02:35:38.299Z,101336.13
2022-09-01T02:40:44.847Z,101328.56
2022-09-01T02:45:55.721Z,101328.06
2022-09-01T02:51:04.927Z,101334.88
2022-09-01T02:56:12.416Z,101331.44
2022-09-01T03:01:25.142Z,101329.34
2022-09-01T03:06:28.376Z,101325.88
2022-09-01T03:11:32.779Z,101324.03
2022-09-01T03:16:38.309Z,101325.22
2022-09-01T03:21:43.311Z,101321.78
2022-09-01T03:26:50.021Z,101318.13
2022-09-01T03:31:52.361Z,101317.50
2022-09-01T03:36:54.626Z,101322.03
2022-09-01T03:41:58.332Z,101324.06
2022-09-01T03:47:01.570Z,101317.50
2022-09-01T03:52:04.176Z,101325.13
2022-09-01T03:57:07.181Z,101326.06
2022-09-01T04:02:09.803Z,101325.81
2022-09-01T04:07:19.200Z,101326.06
2022-09-01T04:12:21.257Z,101316.19
2022-09-01T04:17:41.846Z,101321.91
2022-09-01T04:22:44.099Z,101324.25
2022-09-01T04:27:47.821Z,101327.06
2022-09-01T04:32:49.914Z,101326.03
2022-09-01T04:37:52.113Z,101322.78
2022-09-01T04:42:54.156Z,101323.13
2022-09-01T04:47:56.120Z,101320.66
2022-09-01T04:53:02.358Z,101325.06
2022-09-01T04:58:10.067Z,101332.41
2022-09-01T05:03:12.216Z,101325.28
2022-09-01T05:08:23.665Z,101323.22
2022-09-01T05:13:27.440Z,101318.50
2022-09-01T05:18:29.785Z,101327.13
2022-09-01T05:23:32.306Z,101324.81
2022-09-01T05:28:34.333Z,101328.25
2022-09-01T05:33:37.772Z,101328.16
2022-09-01T05:38:42.956Z,101329.56
2022-09-01T05:43:48.450Z,101336.69
2022-09-01T05:48:52.435Z,101338.38
2022-09-01T05:53:59.128Z,101342.56
2022-09-01T06:04:25.833Z,101342.06
2022-09-01T06:09:27.954Z,101341.66
2022-09-01T06:14:29.771Z,101342.28
2022-09-01T06:19:37.181Z,101348.03
2022-09-01T06:24:43.615Z,101349.50
2022-09-01T06:29:53.974Z,101354.34
2022-09-01T06:34:58.363Z,101352.44
2022-09-01T06:40:00.192Z,101354.53
2022-09-01T06:45:02.483Z,101349.78
2022-09-01T06:50:08.790Z,101360.25
2022-09-01T06:55:15.237Z,101360.66
2022-09-01T07:00:21.258Z,101368.44
2022-09-01T07:16:34.620Z,101368.44
2022-09-01T07:21:40.809Z,101371.66
2022-09-01T07:26:47.232Z,101372.41
2022-09-01T07:32:41.167Z,101375.97
2022-09-01T07:48:03.726Z,101372.78
2022-09-01T07:53:05.995Z,101382.16
2022-09-01T07:58:07.840Z,101380.66
2022-09-01T08:03:09.778Z,101375.91
2022-09-01T08:08:19.345Z,101377.19
2022-09-01T08:13:22.326Z,101381.13
2022-09-01T08:18:24.421Z,101382.97
2022-09-01T08:23:27.524Z,101384.75
2022-09-01T08:28:29.833Z,101380.19
2022-09-01T08:33:35.394Z,101374.69
2022-09-01T08:38:37.392Z,101372.34
2022-09-01T08:43:58.840Z,101372.56
2022-09-01T08:54:35.376Z,101379.69
2022-09-01T08:59:39.002Z,101371.72
2022-09-01T09:05:21.381Z,101378.09
2022-09-01T09:10:48.139Z,101370.97
2022-09-01T09:16:08.733Z,101371.41
2022-09-01T09:21:27.351Z,101364.00
2022-09-01T09:26:42.289Z,101362.16
2022-09-01T09:31:50.386Z,101352.97
2022-09-01T09:36:55.442Z,101361.94
2022-09-01T09:42:09.824Z,101353.22
2022-09-01T09:47:46.562Z,101348.19
2022-09-01T09:52:49.514Z,101333.28
2022-09-01T09:57:55.473Z,101334.38
2022-09-01T10:03:19.716Z,101332.69
2022-09-01T10:08:28.417Z,101325.06
2022-09-01T10:13:33.152Z,101319.78
2022-09-01T10:18:45.215Z,101325.69
2022-09-01T10:23:47.047Z,101323.63
2022-09-01T10:29:15.855Z,101315.50
2022-09-01T10:34:19.833Z,101317.00
2022-09-01T10:39:22.537Z,101320.19
2022-09-01T10:44:39.058Z,101312.56
2022-09-01T10:49:47.429Z,101310.63
2022-09-01T10:55:01.834Z,101310.41
2022-09-01T11:00:37.485Z,101303.75
2022-09-01T11:06:11.029Z,101302.66
2022-09-01T11:11:22.959Z,101296.44
2022-09-01T11:16:46.728Z,101296.22
2022-09-01T11:22:05.998Z,101286.31
2022-09-01T11:27:32.724Z,101286.94
2022-09-01T11:32:37.896Z,101291.91
2022-09-01T11:37:40.641Z,101282.88
2022-09-01T11:42:46.719Z,101280.81
2022-09-01T11:48:06.549Z,101276.19
2022-09-01T11:53:13.614Z,101276.44
2022-09-01T11:58:32.079Z,101270.72
2022-09-01T12:03:34.265Z,101270.16
2022-09-01T12:08:40.735Z,101264.00
2022-09-01T12:13:59.087Z,101255.72
2022-09-01T12:19:01.549Z,101248.34
2022-09-01T12:24:23.172Z,101242.66
2022-09-01T12:29:28.928Z,101243.91
2022-09-01T12:34:33.899Z,101242.66
2022-09-01T12:39:44.140Z,101243.50
2022-09-01T12:44:52.270Z,101238.81
2022-09-01T12:49:55.692Z,101235.53
2022-09-01T12:55:04.217Z,101232.41
2022-09-01T13:00:31.496Z,101232.47
2022-09-01T13:05:40.993Z,101226.41
2022-09-01T13:10:46.596Z,101220.50
2022-09-01T13:15:51.655Z,101219.28
2022-09-01T13:20:54.475Z,101213.16
2022-09-01T13:25:56.575Z,101210.03
2022-09-01T13:36:48.087Z,101198.72
2022-09-01T13:41:50.935Z,101202.94
2022-09-01T13:47:00.906Z,101203.47
2022-09-01T13:52:14.781Z,101190.19
2022-09-01T13:57:16.803Z,101184.63
2022-09-01T14:02:19.013Z,101164.50
2022-09-01T14:07:22.316Z,101161.44
2022-09-01T14:12:24.513Z,101163.50
2022-09-01T14:17:26.568Z,101158.16
2022-09-01T14:22:28.562Z,101151.41
2022-09-01T14:27:31.118Z,101147.81
2022-09-01T14:32:33.007Z,101147.25
2022-09-01T14:37:37.748Z,101138.13
2022-09-01T14:42:40.359Z,101143.81
2022-09-01T14:47:42.359Z,101133.31
2022-09-01T14:52:45.797Z,101134.91
2022-09-01T14:57:47.942Z,101119.22
2022-09-01T15:02:49.747Z,101119.84
2022-09-01T15:07:52.488Z,101121.34
2022-09-01T15:12:59.689Z,101125.50
2022-09-01T15:18:02.359Z,101116.44
2022-09-01T15:23:04.816Z,101113.13
2022-09-01T15:28:08.844Z,101110.69
2022-09-01T15:33:19.928Z,101101.50
2022-09-01T15:38:23.471Z,101088.31
2022-09-01T15:43:28.980Z,101097.84
2022-09-01T15:48:30.869Z,101082.19
2022-09-01T15:53:32.745Z,101087.19
2022-09-01T15:58:59.411Z,101082.81
2022-09-01T16:03:57.679Z,101080.50
2022-09-01T16:08:59.637Z,101083.88
2022-09-01T16:14:02.139Z,101081.56
2022-09-01T16:19:48.747Z,101079.03
2022-09-01T16:24:54.604Z,101077.38
2022-09-01T16:30:02.062Z,101068.72
2022-09-01T16:35:04.371Z,101068.59
2022-09-01T16:40:37.956Z,101064.03
2022-09-01T16:46:03.833Z,101063.56
2022-09-01T16:51:39.363Z,101060.66
2022-09-01T16:56:59.879Z,101056.03
2022-09-01T17:02:32.220Z,101058.72
2022-09-01T17:07:48.398Z,101046.59
2022-09-01T17:12:56.266Z,101045.63
2022-09-01T17:18:36.350Z,101051.56
2022-09-01T17:23:50.790Z,101045.84
2022-09-01T17:29:25.835Z,101035.72
2022-09-01T17:34:43.779Z,101040.13
2022-09-01T17:40:15.999Z,101035.47
2022-09-01T17:45:37.270Z,101035.72
2022-09-01T17:50:39.264Z,101043.91
2022-09-01T17:55:55.113Z,101038.88
2022-09-01T18:01:10.193Z,101044.53
2022-09-01T18:06:36.778Z,101057.50
2022-09-01T18:11:48.080Z,101051.13
2022-09-01T18:17:10.924Z,101044.03
2022-09-01T18:22:20.765Z,101050.63
2022-09-01T18:27:26.079Z,101053.69
2022-09-01T18:33:05.378Z,101052.00
2022-09-01T18:38:16.398Z,101066.44
2022-09-01T18:43:33.889Z,101066.03
2022-09-01T18:49:12.406Z,101074.75
2022-09-01T18:54:37.182Z,101074.25
2022-09-01T18:59:44.945Z,101068.97
2022-09-01T19:04:49.968Z,101071.81
2022-09-01T19:10:19.487Z,101068.88
2022-09-01T19:15:39.922Z,101066.19
2022-09-01T19:20:51.211Z,101069.13
2022-09-01T19:26:00.389Z,101074.25
2022-09-01T19:31:27.049Z,101078.91
2022-09-01T19:36:36.724Z,101073.16
2022-09-01T19:42:13.127Z,101074.84
2022-09-01T19:47:20.935Z,101079.88
2022-09-01T19:52:35.607Z,101073.88
2022-09-01T19:58:01.348Z,101076.47
2022-09-01T20:03:16.158Z,101081.72
2022-09-01T20:08:27.062Z,101075.13
2022-09-01T20:14:06.203Z,101084.28
2022-09-01T20:19:14.524Z,101086.97
2022-09-01T20:24:34.760Z,101081.34
2022-09-01T20:29:58.699Z,101080.59
2022-09-01T20:35:08.535Z,101082.44
2022-09-01T20:40:31.168Z,101078.88
2022-09-01T20:45:33.312Z,101077.19
2022-09-01T20:50:54.609Z,101069.84
2022-09-01T20:56:32.797Z,101069.84
2022-09-01T21:01:52.999Z,101067.53
2022-09-01T21:07:31.399Z,101066.91
2022-09-01T21:12:47.882Z,101062.13
2022-09-01T21:18:03.243Z,101064.84
2022-09-01T21:23:06.838Z,101068.25
2022-09-01T21:28:08.704Z,101053.59
2022-09-01T21:33:10.641Z,101061.41
2022-09-01T21:38:12.614Z,101054.53
2022-09-01T21:43:19.253Z,101046.47
2022-09-01T21:48:21.318Z,101050.63
2022-09-01T21:53:23.284Z,101045.75
2022-09-01T21:58:25.571Z,101042.94
2022-09-01T22:03:27.367Z,101044.63
2022-09-01T22:08:29.339Z,101043.06
2022-09-01T22:13:31.276Z,101037.28
2022-09-01T22:18:33.094Z,101042.81
2022-09-01T22:23:35.589Z,101034.25
2022-09-01T22:28:37.433Z,101040.56
2022-09-01T22:33:39.245Z,101040.72
2022-09-01T22:38:41.046Z,101031.66
2022-09-01T22:43:42.875Z,101031.66
2022-09-01T22:48:44.776Z,101030.59
2022-09-01T22:53:46.753Z,101027.28
2022-09-01T22:58:49.523Z,101022.75
2022-09-01T23:03:52.057Z,101018.09
2022-09-01T23:08:54.101Z,101022.63
2022-09-01T23:13:56.274Z,101011.88
2022-09-01T23:18:58.308Z,101020.78
2022-09-01T23:24:00.697Z,101004.53
2022-09-01T23:29:04.062Z,101013.34
2022-09-01T23:34:07.476Z,101009.78
2022-09-01T23:39:09.244Z,101003.19
2022-09-01T23:44:12.057Z,100996.31
2022-09-01T23:49:16.635Z,100999.53
2022-09-01T23:54:18.637Z,100996.56
2022-09-01T23:59:27.706Z,100985.56
